Time;durP1;ratioP1;P1;durP2;ratioP2;P2;SDS_P1;SDS_P2;PMS_P1;PMS_P2;Temp;Humidity;BMP_temperature;BMP_pressure;BME280_temperature;BME280_humidity;BME280_pressure;Samples;Min_cycle;Max_cycle;Signal;HPM_P1;HPM_P2
2022/02/01 00:01:17;;;;;;;30.10;12.50;;;;;;;-1.85;70.05;99087.27;106095;1274;108205;-69
2022/02/01 00:03:53;;;;;;;31.70;13.60;;;;;;;-1.87;70.28;99088.46;107469;1273;138429;-69
2022/02/01 00:06:32;;;;;;;32.20;13.30;;;;;;;-1.87;70.54;99091.70;107565;1274;94937;-68
2022/02/01 00:09:11;;;;;;;33.70;13.20;;;;;;;-1.83;70.33;99091.17;107645;1274;94708;-69
2022/02/01 00:11:54;;;;;;;29.70;12.70;;;;;;;-1.81;70.23;99094.40;107470;1273;137399;-69
2022/02/01 00:14:34;;;;;;;29.90;13.50;;;;;;;-1.83;70.31;99089.30;107632;1274;108917;-69
2022/02/01 00:17:50;;;;;;;30.70;13.20;;;;;;;-1.83;70.52;99090.16;107477;1273;137540;-69
2022/02/01 00:20:38;;;;;;;29.40;12.80;;;;;;;-1.84;70.11;99097.82;107563;1274;94633;-69
2022/02/01 00:34:43;;;;;;;23.90;11.20;;;;;;;-1.92;70.42;99103.81;107753;1268;138412;-69
2022/02/01 00:37:19;;;;;;;24.50;11.30;;;;;;;-1.92;70.42;99105.34;107856;1268;95176;-69
2022/02/01 00:39:56;;;;;;;29.50;12.10;;;;;;;-1.91;70.25;99106.52;107761;1268;142227;-69
2022/02/01 00:42:28;;;;;;;22.70;10.80;;;;;;;-1.89;70.28;99109.42;107814;1270;108968;-68
2022/02/01 00:45:00;;;;;;;28.30;11.80;;;;;;;-1.87;70.28;99113.51;107578;1270;109203;-68
2022/02/01 00:47:32;;;;;;;27.30;11.30;;;;;;;-1.83;70.46;99113.33;106233;1270;139237;-69
2022/02/01 00:50:05;;;;;;;26.10;11.40;;;;;;;-1.79;70.15;99117.77;106324;1268;95378;-69
2022/02/01 00:52:39;;;;;;;24.90;11.10;;;;;;;-1.77;70.06;99121.18;106233;1268;137394;-69
2022/02/01 00:55:12;;;;;;;26.50;11.00;;;;;;;-1.77;69.91;99127.83;106350;1268;108850;-68
2022/02/01 00:57:45;;;;;;;24.90;10.00;;;;;;;-1.79;69.84;99123.73;106201;1270;108810;-68
2022/02/01 01:00:17;;;;;;;22.90;10.80;;;;;;;-1.81;70.02;99120.65;106237;1268;137488;-69
2022/02/01 01:02:50;;;;;;;24.40;9.90;;;;;;;-1.85;69.87;99120.48;107865;1268;94887;-70
2022/02/01 01:05:24;;;;;;;22.10;10.10;;;;;;;-1.87;69.90;99116.40;107821;1268;137699;-70
2022/02/01 01:07:56;;;;;;;22.10;10.40;;;;;;;-1.90;70.16;99113.85;107886;1270;108928;-68
2022/02/01 01:10:28;;;;;;;21.80;9.60;;;;;;;-1.93;69.63;99111.30;107754;1270;138260;-69
2022/02/01 01:13:08;;;;;;;18.20;8.80;;;;;;;-1.94;69.78;99109.60;107892;1268;95697;-68
2022/02/01 01:15:47;;;;;;;15.20;7.90;;;;;;;-1.94;70.00;99108.92;107821;1268;94382;-68
2022/02/01 01:18:51;;;;;;;20.30;8.90;;;;;;;-1.92;69.96;99110.96;106278;1268;137984;-67
2022/02/01 01:43:57;;;;;;;21.20;8.20;;;;;;;-2.21;69.82;99138.02;107628;1273;95834;-68
2022/02/01 01:54:54;;;;;;;19.30;8.30;;;;;;;-2.25;70.10;99147.38;107334;1277;94754;-68
2022/02/01 01:57:35;;;;;;;21.80;8.60;;;;;;;-2.22;70.16;99147.38;106537;1276;96381;-69
2022/02/01 02:00:20;;;;;;;20.10;8.30;;;;;;;-2.21;70.02;99157.09;107062;1277;137975;-69
2022/02/01 02:02:52;;;;;;;19.30;8.10;;;;;;;-2.19;70.32;99162.02;107288;1277;107824;-69
2022/02/01 02:05:24;;;;;;;19.00;8.20;;;;;;;-2.17;70.24;99167.98;106680;1276;138702;-68
2022/02/01 02:07:56;;;;;;;20.00;7.70;;;;;;;-2.17;70.22;99164.08;107208;1277;94910;-68
2022/02/01 02:10:29;;;;;;;21.10;7.90;;;;;;;-2.15;70.14;99170.22;105799;1277;138564;-69
2022/02/01 02:14:17;;;;;;;16.80;7.90;;;;;;;-2.15;70.14;99171.42;105860;1277;111179;-68
2022/02/01 02:15:59;;;;;;;17.30;7.60;;;;;;;-2.14;70.32;99175.34;105775;1277;138017;-69
2022/02/01 02:18:34;;;;;;;17.80;7.40;;;;;;;-2.16;69.97;99177.02;105859;1273;108984;-69
2022/02/01 02:21:07;;;;;;;19.00;6.50;;;;;;;-2.17;70.03;99178.71;106128;1273;96488;-69
2022/02/01 02:23:38;;;;;;;14.70;6.60;;;;;;;-2.19;69.90;99179.21;107504;1273;138351;-69
2022/02/01 02:26:16;;;;;;;19.10;7.20;;;;;;;-2.20;70.15;99187.56;107575;1273;111890;-69
2022/02/01 02:28:48;;;;;;;16.00;7.00;;;;;;;-2.17;70.10;99194.89;107767;1268;138213;-70
2022/02/01 02:31:23;;;;;;;15.30;7.10;;;;;;;-2.13;70.36;99203.27;107918;1267;109178;-69
2022/02/01 02:34:02;;;;;;;18.50;7.40;;;;;;;-2.10;70.18;99204.13;107927;1267;94527;-69
2022/02/01 02:36:36;;;;;;;18.90;7.20;;;;;;;-2.05;70.00;99204.46;107829;1268;136977;-69
2022/02/01 02:39:13;;;;;;;17.80;7.10;;;;;;;-2.03;69.95;99203.45;107886;1267;111381;-70
2022/02/01 02:41:52;;;;;;;16.60;6.90;;;;;;;-2.02;69.80;99200.71;107819;1267;137459;-69
2022/02/01 02:47:13;;;;;;;17.30;7.40;;;;;;;-1.99;70.08;99203.77;107760;1268;137701;-69
2022/02/01 02:49:45;;;;;;;16.70;7.20;;;;;;;-1.99;69.91;99209.23;107957;1268;94880;-69
2022/02/01 02:52:18;;;;;;;18.90;7.30;;;;;;;-2.00;69.84;99208.38;107267;1267;138857;-69
2022/02/01 02:54:50;;;;;;;14.30;6.80;;;;;;;-2.00;69.76;99212.46;106383;1268;109106;-69
2022/02/01 02:57:22;;;;;;;15.40;6.40;;;;;;;-1.99;69.83;99216.38;107762;1267;108947;-69
2022/02/01 02:59:54;;;;;;;14.50;5.80;;;;;;;-1.98;69.86;99215.36;107756;1268;138804;-69
2022/02/01 03:02:26;;;;;;;14.10;6.30;;;;;;;-1.95;70.00;99214.20;107568;1268;95290;-68
2022/02/01 03:04:58;;;;;;;14.90;6.40;;;;;;;-1.93;69.79;99212.66;107822;1267;138723;-68
2022/02/01 03:07:30;;;;;;;12.10;5.80;;;;;;;-1.89;69.84;99211.98;107933;1267;108903;-69
2022/02/01 03:10:02;;;;;;;13.50;6.00;;;;;;;-1.86;69.96;99215.38;107946;1267;108864;-68
2022/02/01 03:12:56;;;;;;;15.50;6.50;;;;;;;-1.85;69.59;99211.81;107791;1267;137645;-69
2022/02/01 03:15:40;;;;;;;11.80;5.70;;;;;;;-1.83;69.67;99207.04;107910;1268;94612;-68
2022/02/01 03:21:01;;;;;;;15.90;6.70;;;;;;;-1.85;69.73;99213.00;107912;1268;108918;-68
2022/02/01 03:23:33;;;;;;;13.00;6.10;;;;;;;-1.88;69.45;99213.35;107779;1267;137263;-68
2022/02/01 03:26:05;;;;;;;19.80;6.40;;;;;;;-1.91;69.63;99221.19;107911;1265;94775;-68
2022/02/01 03:28:37;;;;;;;16.00;6.70;;;;;;;-1.92;69.90;99226.47;107778;1269;137461;-69
2022/02/01 03:31:08;;;;;;;16.40;6.60;;;;;;;-1.94;69.72;99235.33;107959;1267;111189;-68
2022/02/01 03:33:41;;;;;;;12.80;5.80;;;;;;;-1.96;69.85;99236.17;107913;1268;107805;-69
2022/02/01 03:36:13;;;;;;;15.30;6.40;;;;;;;-2.00;69.81;99241.77;107793;1267;137807;-69
2022/02/01 03:38:46;;;;;;;14.50;6.70;;;;;;;-2.02;69.69;99243.13;107300;1268;95119;-68
2022/02/01 03:41:19;;;;;;;16.00;6.70;;;;;;;-2.05;69.93;99247.72;107515;1266;137847;-69
2022/02/01 03:43:51;;;;;;;16.30;7.30;;;;;;;-2.07;69.86;99253.86;107964;1267;111647;-68
2022/02/01 03:46:23;;;;;;;17.60;7.90;;;;;;;-2.05;69.92;99255.90;106916;1268;138290;-68
2022/02/01 03:48:56;;;;;;;16.20;7.00;;;;;;;-2.05;69.93;99248.58;106334;1268;109200;-68
2022/02/01 03:51:28;;;;;;;14.40;7.10;;;;;;;-2.03;70.08;99241.42;107014;1266;96587;-68
2022/02/01 03:54:00;;;;;;;17.60;7.30;;;;;;;-1.99;70.34;99239.04;107794;1267;138458;-69
2022/02/01 03:56:32;;;;;;;17.00;7.80;;;;;;;-1.99;69.96;99235.98;107459;1268;111218;-68
2022/02/01 03:59:04;;;;;;;19.00;8.10;;;;;;;-2.00;70.44;99240.73;106415;1268;136337;-68
2022/02/01 04:01:36;;;;;;;21.70;8.60;;;;;;;-2.01;70.40;99244.15;107331;1269;107878;-69
2022/02/01 04:04:08;;;;;;;20.90;8.80;;;;;;;-2.03;70.31;99249.94;107930;1266;95061;-69
2022/02/01 04:06:41;;;;;;;23.30;10.00;;;;;;;-2.03;70.27;99247.05;106622;1268;136893;-68
2022/02/01 04:09:13;;;;;;;19.60;9.90;;;;;;;-2.03;70.61;99246.19;106449;1268;111328;-68
2022/02/01 04:11:45;;;;;;;24.50;10.10;;;;;;;-2.07;70.40;99240.73;106445;1268;139008;-69
2022/02/01 04:14:21;;;;;;;23.70;10.60;;;;;;;-2.11;70.48;99242.44;107613;1268;106779;-69
2022/02/01 04:16:53;;;;;;;22.20;9.80;;;;;;;-2.17;70.50;99242.75;107778;1267;139364;-69
2022/02/01 04:19:26;;;;;;;25.10;10.40;;;;;;;-2.24;70.60;99236.09;107926;1268;94919;-68
2022/02/01 04:22:01;;;;;;;24.60;11.10;;;;;;;-2.28;70.77;99235.91;107909;1268;111112;-69
2022/02/01 04:24:34;;;;;;;27.60;10.30;;;;;;;-2.33;70.80;99231.98;107800;1268;138902;-69
2022/02/01 04:27:11;;;;;;;27.30;11.30;;;;;;;-2.37;70.78;99233.48;107907;1267;108805;-70
2022/02/01 04:29:48;;;;;;;23.40;10.90;;;;;;;-2.37;70.84;99227.36;107486;1268;138411;-68
2022/02/01 04:32:21;;;;;;;28.00;10.50;;;;;;;-2.39;71.09;99221.39;106369;1268;96477;-68
2022/02/01 04:34:59;;;;;;;21.60;10.70;;;;;;;-2.40;71.21;99220.03;107040;1267;138260;-69
2022/02/01 04:37:31;;;;;;;22.50;10.50;;;;;;;-2.40;71.04;99216.12;107051;1267;108674;-68
2022/02/01 04:40:05;;;;;;;21.50;10.10;;;;;;;-2.39;71.33;99218.67;107294;1265;108381;-69
2022/02/01 04:42:38;;;;;;;25.00;10.60;;;;;;;-2.35;71.18;99217.83;107820;1267;138875;-69
2022/02/01 04:45:15;;;;;;;21.50;11.20;;;;;;;-2.34;71.67;99219.38;107939;1267;94813;-69
2022/02/01 04:47:47;;;;;;;23.90;11.50;;;;;;;-2.30;71.52;99219.23;106490;1267;137349;-69
2022/02/01 04:50:22;;;;;;;26.80;12.20;;;;;;;-2.34;71.23;99217.17;106505;1268;108381;-69
2022/02/01 04:52:55;;;;;;;24.20;12.30;;;;;;;-2.38;71.62;99217.98;106210;1267;138196;-69
2022/02/01 04:55:41;;;;;;;26.80;12.40;;;;;;;-2.43;71.32;99227.34;106389;1267;96504;-69
2022/02/01 04:58:14;;;;;;;29.70;12.50;;;;;;;-2.48;71.55;99230.73;106348;1268;96491;-69
2022/02/01 05:00:46;;;;;;;28.70;12.50;;;;;;;-2.56;71.20;99228.99;106307;1268;137232;-68
2022/02/01 05:03:19;;;;;;;29.50;13.00;;;;;;;-2.64;71.71;99236.11;106383;1267;109940;-69
2022/02/01 05:05:51;;;;;;;22.70;12.10;;;;;;;-2.72;71.53;99242.70;106233;1268;137842;-69
2022/02/01 05:08:24;;;;;;;23.50;11.40;;;;;;;-2.77;72.17;99247.61;106375;1268;96584;-69
2022/02/01 05:10:56;;;;;;;24.70;11.00;;;;;;;-2.80;72.01;99244.88;107817;1268;139001;-69
2022/02/01 05:16:21;;;;;;;28.80;12.10;;;;;;;-2.84;72.63;99258.64;107813;1270;107794;-67
2022/02/01 05:19:02;;;;;;;26.40;12.00;;;;;;;-2.87;72.44;99261.33;107792;1267;137952;-69
2022/02/01 05:21:37;;;;;;;25.70;12.70;;;;;;;-2.86;72.68;99262.72;107914;1268;94860;-69
2022/02/01 05:24:12;;;;;;;31.40;12.70;;;;;;;-2.84;72.85;99258.64;107754;1268;138358;-70
2022/02/01 05:26:44;;;;;;;28.40;13.80;;;;;;;-2.83;73.14;99253.72;106437;1268;110962;-71
2022/02/01 05:29:18;;;;;;;29.90;13.40;;;;;;;-2.84;73.21;99253.04;106307;1267;137600;-68
2022/02/01 05:31:51;;;;;;;29.50;14.00;;;;;;;-2.84;72.86;99255.41;106350;1268;109128;-69
2022/02/01 05:34:24;;;;;;;29.70;13.60;;;;;;;-2.88;72.98;99254.69;106383;1268;96826;-69
2022/02/01 05:36:56;;;;;;;27.80;12.80;;;;;;;-2.91;73.13;99260.11;107727;1268;137483;-69
2022/02/01 05:39:30;;;;;;;27.60;12.90;;;;;;;-2.93;73.01;99256.70;107038;1268;110150;-67
2022/02/01 05:42:02;;;;;;;26.40;12.60;;;;;;;-2.96;73.15;99256.02;106358;1268;138386;-68
2022/02/01 05:44:34;;;;;;;26.30;12.20;;;;;;;-2.98;73.31;99255.66;106427;1268;108408;-69
2022/02/01 05:47:07;;;;;;;28.10;12.50;;;;;;;-3.00;73.47;99262.11;106253;1267;138548;-69
2022/02/01 05:49:39;;;;;;;29.70;12.60;;;;;;;-3.02;73.48;99264.65;107903;1267;94736;-69
2022/02/01 05:52:11;;;;;;;22.90;11.80;;;;;;;-3.08;73.34;99265.45;107234;1267;111649;-69
2022/02/01 05:54:43;;;;;;;25.50;12.40;;;;;;;-3.10;73.31;99279.89;106263;1268;138423;-67
2022/02/01 05:57:15;;;;;;;25.90;11.80;;;;;;;-3.13;73.58;99281.06;106410;1268;107751;-69
2022/02/01 05:59:47;;;;;;;28.10;12.50;;;;;;;-3.13;73.54;99284.64;106275;1267;138091;-67
2022/02/01 06:02:19;;;;;;;26.90;13.60;;;;;;;-3.16;73.65;99288.86;106096;1267;98293;-68
2022/02/01 06:04:52;;;;;;;30.60;14.10;;;;;;;-3.16;73.66;99286.99;106302;1268;137601;-67
2022/02/01 06:07:24;;;;;;;27.60;13.70;;;;;;;-3.16;73.85;99286.32;106403;1268;108920;-66
2022/02/01 06:09:55;;;;;;;29.50;13.30;;;;;;;-3.18;73.91;99289.36;106425;1268;107986;-68
2022/02/01 06:12:27;;;;;;;30.40;14.10;;;;;;;-3.20;73.92;99285.60;106232;1267;137527;-68
2022/02/01 06:14:59;;;;;;;29.50;13.60;;;;;;;-3.25;74.09;99287.59;106367;1267;96466;-68
2022/02/01 06:17:31;;;;;;;26.60;13.00;;;;;;;-3.28;73.83;99287.73;106271;1267;137971;-68
2022/02/01 06:20:03;;;;;;;30.80;13.60;;;;;;;-3.32;74.08;99291.29;106379;1268;108858;-68
2022/02/01 06:22:35;;;;;;;29.00;13.60;;;;;;;-3.32;74.23;99303.36;106391;1267;110225;-68
2022/02/01 06:25:08;;;;;;;34.90;13.70;;;;;;;-3.34;74.29;99303.68;106281;1267;138219;-67
2022/02/01 06:27:40;;;;;;;27.10;13.10;;;;;;;-3.33;74.27;99304.88;107852;1268;94625;-69
2022/02/01 06:30:12;;;;;;;28.70;13.20;;;;;;;-3.30;74.26;99303.37;107766;1269;139532;-69
2022/02/01 06:32:44;;;;;;;32.00;14.40;;;;;;;-3.26;74.39;99302.20;107939;1267;107318;-69
2022/02/01 06:35:16;;;;;;;28.50;13.70;;;;;;;-3.21;74.44;99305.31;106394;1268;138173;-68
2022/02/01 06:37:48;;;;;;;29.40;14.60;;;;;;;-3.17;74.20;99293.80;106382;1268;96484;-67
2022/02/01 06:40:21;;;;;;;34.10;15.60;;;;;;;-3.12;74.29;99284.46;106446;1267;96949;-69
2022/02/01 06:42:54;;;;;;;27.70;15.20;;;;;;;-3.04;74.45;99283.34;106352;1267;137781;-68
2022/02/01 06:45:27;;;;;;;35.30;15.00;;;;;;;-3.00;74.14;99282.35;107861;1268;108852;-69
2022/02/01 06:47:59;;;;;;;31.00;14.70;;;;;;;-2.93;74.42;99282.73;107815;1267;138242;-70
2022/02/01 06:50:31;;;;;;;31.00;14.90;;;;;;;-2.84;74.47;99283.98;106858;1267;96500;-69
2022/02/01 06:53:04;;;;;;;27.20;14.70;;;;;;;-2.62;74.81;99290.23;106321;1268;139665;-68
2022/02/01 06:55:44;;;;;;;31.10;14.20;;;;;;;-2.28;74.49;99290.05;106386;1267;110918;-68
2022/02/01 06:58:17;;;;;;;28.50;13.70;;;;;;;-1.89;74.33;99289.50;106432;1268;109121;-68
2022/02/01 07:00:49;;;;;;;32.00;13.80;;;;;;;-1.55;73.51;99291.45;106267;1268;138508;-68
2022/02/01 07:03:22;;;;;;;23.10;12.80;;;;;;;-1.16;73.39;99291.11;106363;1268;96484;-70
2022/02/01 07:05:54;;;;;;;27.80;13.80;;;;;;;-0.88;72.25;99291.27;106404;1267;137616;-69
2022/02/01 07:08:26;;;;;;;25.50;13.90;;;;;;;-0.69;71.76;99288.84;106520;1267;111036;-68
2022/02/01 07:11:00;;;;;;;24.40;14.20;;;;;;;-0.49;71.57;99292.36;106324;1268;138308;-69
2022/02/01 07:13:33;;;;;;;27.90;13.60;;;;;;;-0.27;71.07;99287.69;106423;1268;108857;-69
2022/02/01 07:16:06;;;;;;;26.50;14.00;;;;;;;-0.19;70.57;99289.02;106423;1268;96605;-69
2022/02/01 07:18:38;;;;;;;21.70;12.70;;;;;;;-0.18;70.06;99295.34;107754;1267;138973;-70
2022/02/01 07:21:10;;;;;;;27.10;12.70;;;;;;;-0.24;69.86;99293.82;107955;1267;110007;-69
2022/02/01 07:23:42;;;;;;;27.70;14.10;;;;;;;-0.34;69.83;99290.46;107804;1267;137546;-70
2022/02/01 07:26:14;;;;;;;26.20;13.80;;;;;;;-0.37;69.97;99290.27;107302;1268;109260;-69
2022/02/01 07:28:48;;;;;;;30.10;13.90;;;;;;;-0.34;70.10;99295.74;107379;1268;95046;-70
2022/02/01 07:31:21;;;;;;;28.50;13.90;;;;;;;-0.28;70.00;99302.03;107795;1267;136909;-69
2022/02/01 07:33:53;;;;;;;30.80;14.10;;;;;;;-0.16;69.91;99301.99;107938;1268;109790;-69
2022/02/01 07:36:25;;;;;;;26.60;13.80;;;;;;;-0.04;69.75;99299.20;107405;1267;139235;-70
2022/02/01 07:38:57;;;;;;;28.70;14.00;;;;;;;0.14;69.73;99299.10;107674;1268;108976;-70
2022/02/01 07:41:29;;;;;;;27.60;12.80;;;;;;;0.20;69.15;99300.64;107788;1265;138127;-69
2022/02/01 07:44:01;;;;;;;23.00;12.10;;;;;;;0.23;69.19;99298.39;106535;1268;96519;-70
2022/02/01 07:46:33;;;;;;;24.40;11.50;;;;;;;0.32;68.97;99301.73;106403;1268;111340;-69
2022/02/01 07:49:06;;;;;;;21.60;11.80;;;;;;;0.32;68.70;99304.48;106308;1268;137703;-68
2022/02/01 07:51:38;;;;;;;21.90;10.50;;;;;;;0.32;68.55;99315.58;106301;1269;108401;-69
2022/02/01 07:54:10;;;;;;;20.50;10.90;;;;;;;0.45;68.42;99313.98;106242;1268;138722;-68
2022/02/01 07:56:42;;;;;;;18.70;10.20;;;;;;;0.56;68.21;99310.66;106357;1267;96557;-69
2022/02/01 07:59:15;;;;;;;23.20;10.70;;;;;;;0.62;67.89;99313.70;106285;1268;138110;-68
2022/02/01 08:01:46;;;;;;;22.00;10.20;;;;;;;0.67;68.02;99309.03;106111;1267;108962;-69
2022/02/01 08:04:19;;;;;;;19.00;10.20;;;;;;;0.82;68.05;99300.73;106439;1268;108853;-69
2022/02/01 08:06:51;;;;;;;22.20;10.60;;;;;;;1.21;67.64;99296.08;106222;1268;137446;-70
2022/02/01 08:09:26;;;;;;;20.80;10.50;;;;;;;1.55;67.11;99295.06;106549;1268;96330;-70
2022/02/01 08:11:58;;;;;;;21.30;10.80;;;;;;;1.80;66.72;99300.77;106265;1268;137753;-69
2022/02/01 08:17:46;;;;;;;22.70;10.80;;;;;;;2.36;64.99;99287.52;105846;1268;137558;-69
2022/02/01 08:20:22;;;;;;;21.60;11.60;;;;;;;2.42;64.89;99286.21;106386;1268;96481;-69
2022/02/01 08:23:02;;;;;;;22.30;11.40;;;;;;;2.41;64.52;99286.23;106375;1268;96485;-68
2022/02/01 08:25:36;;;;;;;25.80;13.70;;;;;;;2.47;64.53;99283.05;106305;1268;138249;-68
2022/02/01 08:28:08;;;;;;;21.70;12.60;;;;;;;2.67;64.36;99280.86;106448;1268;107972;-71
2022/02/01 08:30:40;;;;;;;22.20;12.00;;;;;;;2.95;63.63;99278.35;106253;1268;137980;-71
2022/02/01 08:33:13;;;;;;;20.80;12.30;;;;;;;3.04;63.08;99279.91;106345;1268;96569;-69
2022/02/01 08:35:45;;;;;;;22.10;11.40;;;;;;;3.07;62.66;99282.13;106250;1268;140311;-69
2022/02/01 08:38:22;;;;;;;20.00;11.10;;;;;;;3.08;62.44;99282.61;107907;1269;111448;-71
2022/02/01 08:40:54;;;;;;;21.60;10.30;;;;;;;3.20;62.13;99288.23;107872;1268;109744;-72
2022/02/01 08:43:26;;;;;;;21.00;14.80;;;;;;;3.32;62.16;99292.83;107789;1265;137777;-70
2022/02/01 08:45:58;;;;;;;19.70;16.00;;;;;;;3.60;62.16;99295.73;107622;1267;94858;-69
2022/02/01 08:48:30;;;;;;;18.90;10.20;;;;;;;4.03;61.83;99290.24;107303;1268;138397;-70
2022/02/01 08:51:07;;;;;;;18.60;9.50;;;;;;;4.31;61.29;99285.34;107889;1267;111161;-71
2022/02/01 08:53:47;;;;;;;19.60;9.30;;;;;;;4.57;60.53;99281.98;107769;1268;137388;-71
2022/02/01 08:59:28;;;;;;;18.30;9.20;;;;;;;4.91;59.71;99279.10;107777;1267;139108;-71
2022/02/01 09:02:00;;;;;;;19.50;9.40;;;;;;;4.79;58.61;99281.27;107886;1268;95615;-71
2022/02/01 09:04:33;;;;;;;19.20;9.90;;;;;;;4.49;58.96;99284.41;107079;1268;110995;-70
2022/02/01 09:07:06;;;;;;;22.30;9.70;;;;;;;4.29;59.07;99285.55;106271;1268;137420;-71
2022/02/01 09:09:38;;;;;;;19.90;9.70;;;;;;;4.04;58.75;99282.81;106784;1269;108794;-71
2022/02/01 09:12:12;;;;;;;19.30;9.70;;;;;;;3.76;59.39;99281.86;107813;1267;137181;-71
2022/02/01 09:14:47;;;;;;;20.70;10.50;;;;;;;3.54;59.61;99285.88;107920;1267;94501;-71
2022/02/01 09:17:21;;;;;;;20.30;10.20;;;;;;;3.36;59.92;99284.33;107646;1267;137506;-71
2022/02/01 09:19:53;;;;;;;20.30;10.20;;;;;;;3.21;59.43;99281.00;106247;1271;108005;-69
2022/02/01 09:22:26;;;;;;;18.20;9.20;;;;;;;3.13;59.36;99279.77;107301;1267;108901;-71
2022/02/01 09:24:57;;;;;;;18.40;10.30;;;;;;;3.19;59.41;99282.76;107811;1268;137749;-71
2022/02/01 09:27:29;;;;;;;20.10;10.10;;;;;;;3.19;59.64;99290.64;107191;1267;95695;-71
2022/02/01 09:30:02;;;;;;;18.40;10.30;;;;;;;3.13;59.77;99297.12;107580;1268;138953;-71
2022/02/01 09:32:33;;;;;;;21.90;9.90;;;;;;;3.10;60.02;99298.20;107718;1268;197413;-71
2022/02/01 09:35:11;;;;;;;21.20;10.30;;;;;;;2.96;59.90;99287.77;107745;1267;108955;-79
2022/02/01 09:37:43;;;;;;;18.30;9.80;;;;;;;2.82;59.99;99291.44;106693;1268;139960;-73
2022/02/01 09:40:35;;;;;;;19.50;10.60;;;;;;;2.63;60.27;99289.67;106387;1267;96465;-72
2022/02/01 09:43:07;;;;;;;22.80;9.80;;;;;;;2.57;60.73;99289.27;106217;1268;137854;-75
2022/02/01 09:45:39;;;;;;;22.80;10.80;;;;;;;2.53;60.77;99290.87;106234;1268;109141;-83
2022/02/01 09:48:11;;;;;;;23.20;10.60;;;;;;;2.46;60.90;99287.88;106791;1268;137400;-82
2022/02/01 09:50:43;;;;;;;24.40;10.00;;;;;;;2.35;60.62;99290.27;106369;1268;98316;-80
2022/02/01 09:53:15;;;;;;;18.60;9.40;;;;;;;2.20;61.00;99297.52;106468;1268;96472;-81
2022/02/01 09:55:48;;;;;;;21.70;10.20;;;;;;;2.12;61.33;99296.91;107727;1268;136794;-81
2022/02/01 09:58:28;;;;;;;20.80;10.20;;;;;;;2.14;61.66;99289.02;107927;1267;108603;-82
2022/02/01 10:01:02;;;;;;;17.20;9.40;;;;;;;2.16;61.70;99284.39;107734;1267;137422;-82
2022/02/01 10:03:34;;;;;;;18.20;9.20;;;;;;;2.08;61.80;99278.98;107648;1268;96484;-80
2022/02/01 10:06:08;;;;;;;19.20;9.40;;;;;;;1.94;62.04;99272.83;106187;1270;137459;-80
2022/02/01 10:08:43;;;;;;;20.90;9.80;;;;;;;1.85;62.61;99273.11;107832;1268;110078;-80
2022/02/01 10:11:15;;;;;;;24.00;10.20;;;;;;;1.85;62.59;99272.95;107940;1267;108052;-83
2022/02/01 10:13:57;;;;;;;19.80;10.60;;;;;;;1.88;62.89;99263.65;107736;1268;137902;-81
2022/02/01 10:16:32;;;;;;;21.70;10.50;;;;;;;1.86;62.85;99258.02;107828;1270;94578;-81
2022/02/01 10:19:11;;;;;;;23.40;10.10;;;;;;;1.74;63.05;99252.33;107827;1267;137786;-82
2022/02/01 10:21:54;;;;;;;19.50;10.00;;;;;;;1.61;63.34;99251.46;106535;1268;108238;-80
2022/02/01 10:24:34;;;;;;;18.90;9.80;;;;;;;1.57;63.63;99245.34;106479;1268;136478;-81
2022/02/01 10:27:14;;;;;;;16.90;9.20;;;;;;;1.56;63.63;99241.23;107899;1268;108860;-81
2022/02/01 10:30:01;;;;;;;19.30;9.30;;;;;;;1.52;63.70;99235.65;107835;1265;137294;-82
2022/02/01 10:32:48;;;;;;;18.50;9.40;;;;;;;1.66;64.37;99227.92;106774;1268;96488;-83
2022/02/01 10:35:33;;;;;;;;;;;;;;;2.25;63.94;99225.06;106411;1268;111946;-81
2022/02/01 10:38:08;;;;;;;20.00;8.50;;;;;;;2.33;63.28;99224.09;107851;1268;123698;-82
2022/02/01 10:40:45;;;;;;;19.50;8.30;;;;;;;2.33;63.09;99220.65;106736;1268;108953;-80
2022/02/01 10:43:30;;;;;;;17.90;8.40;;;;;;;2.18;62.95;99211.63;107676;1268;137857;-81
2022/02/01 10:46:09;;;;;;;19.70;9.40;;;;;;;2.12;63.18;99208.95;107927;1268;94758;-83
2022/02/01 10:48:48;;;;;;;23.60;9.10;;;;;;;2.14;63.43;99203.79;107775;1267;137342;-82
2022/02/01 10:51:22;;;;;;;18.90;8.90;;;;;;;2.24;63.42;99206.73;107946;1267;107897;-81
2022/02/01 10:53:56;;;;;;;23.00;9.70;;;;;;;2.44;63.63;99193.04;107768;1267;137238;-82
2022/02/01 10:56:28;;;;;;;19.90;10.20;;;;;;;2.62;63.20;99189.48;107857;1268;95249;-81
2022/02/01 10:59:01;;;;;;;21.70;9.70;;;;;;;2.65;63.15;99187.88;107925;1267;94760;-82
2022/02/01 11:01:33;;;;;;;17.60;9.20;;;;;;;2.63;63.20;99183.46;107786;1270;137077;-81
2022/02/01 11:04:08;;;;;;;21.30;9.20;;;;;;;2.61;63.07;99180.05;107919;1268;109024;-78
2022/02/01 11:06:41;;;;;;;21.40;9.50;;;;;;;2.56;63.18;99175.00;107770;1267;137636;-74
2022/02/01 11:09:13;;;;;;;19.90;10.00;;;;;;;2.49;63.05;99172.35;107902;1268;94815;-74
2022/02/01 11:11:54;;;;;;;24.30;9.60;;;;;;;2.39;63.11;99167.73;107787;1268;139038;-76
2022/02/01 11:14:27;;;;;;;21.50;10.30;;;;;;;2.35;63.36;99166.60;107889;1267;109991;-77
2022/02/01 11:17:08;;;;;;;22.00;10.90;;;;;;;2.39;63.54;99162.41;106471;1270;108987;-74
2022/02/01 11:19:52;;;;;;;21.30;10.90;;;;;;;2.45;63.60;99164.36;106103;1270;137555;-76
2022/02/01 11:22:44;;;;;;;24.80;11.10;;;;;;;2.37;63.62;99159.87;107748;1271;94491;-77
2022/02/01 11:25:25;;;;;;;22.80;11.10;;;;;;;2.35;63.78;99154.77;107706;1270;139544;-76
2022/02/01 11:28:10;;;;;;;24.60;11.50;;;;;;;2.38;63.81;99154.02;107621;1271;111211;-77
2022/02/01 11:30:45;;;;;;;20.50;10.20;;;;;;;2.43;63.83;99148.95;106978;1273;137279;-77
2022/02/01 11:33:17;;;;;;;20.50;11.20;;;;;;;2.50;63.56;99141.30;106201;1270;108730;-77
2022/02/01 11:36:03;;;;;;;20.70;10.50;;;;;;;2.55;63.87;99131.10;106055;1271;137532;-75
2022/02/01 11:38:35;;;;;;;23.90;10.40;;;;;;;2.62;63.68;99129.77;106316;1270;96480;-76
2022/02/01 11:41:08;;;;;;;19.60;10.50;;;;;;;2.61;63.46;99128.41;106245;1270;111070;-76
2022/02/01 11:43:43;;;;;;;21.50;10.80;;;;;;;2.55;63.53;99122.52;106208;1270;137726;-76
2022/02/01 11:46:21;;;;;;;24.20;11.10;;;;;;;2.51;63.54;99119.14;106268;1269;109002;-76
2022/02/01 11:48:53;;;;;;;22.40;10.80;;;;;;;2.56;63.80;99117.18;106130;1270;137839;-76
2022/02/01 11:51:45;;;;;;;25.30;10.50;;;;;;;2.73;63.71;99112.73;106279;1270;96588;-75
2022/02/01 11:54:25;;;;;;;24.20;10.80;;;;;;;2.95;63.34;99113.86;106129;1270;137694;-76
2022/02/01 11:57:10;;;;;;;20.00;10.20;;;;;;;3.16;63.07;99103.50;106285;1270;107648;-76
2022/02/01 11:59:53;;;;;;;23.70;9.90;;;;;;;3.41;62.82;99092.12;106345;1270;108975;-76
2022/02/01 12:02:35;;;;;;;21.50;8.80;;;;;;;3.64;61.87;99092.33;106159;1270;136978;-75
2022/02/01 12:05:15;;;;;;;20.30;9.20;;;;;;;3.66;61.37;99082.66;107814;1270;95063;-76
2022/02/01 12:07:54;;;;;;;21.30;10.20;;;;;;;3.59;61.53;99074.89;107669;1270;137176;-77
2022/02/01 12:10:26;;;;;;;23.00;9.70;;;;;;;3.50;61.30;99072.16;107815;1270;108254;-76
2022/02/01 12:13:01;;;;;;;18.40;10.00;;;;;;;3.41;61.19;99072.20;107656;1270;137126;-76
2022/02/01 12:15:35;;;;;;;18.30;9.50;;;;;;;3.35;61.40;99074.73;107663;1271;94764;-77
2022/02/01 12:18:27;;;;;;;18.80;9.80;;;;;;;3.29;61.40;99075.20;106293;1271;137690;-76
2022/02/01 12:21:21;;;;;;;16.90;9.10;;;;;;;3.25;61.28;99074.79;106338;1271;111512;-76
2022/02/01 12:23:54;;;;;;;19.50;9.50;;;;;;;3.18;61.69;99070.46;106275;1270;109007;-76
2022/02/01 12:26:29;;;;;;;20.50;9.80;;;;;;;3.07;61.46;99071.36;106200;1270;138736;-77
2022/02/01 12:29:03;;;;;;;20.80;9.50;;;;;;;2.93;61.43;99069.45;106250;1270;96465;-77
2022/02/01 12:31:38;;;;;;;17.10;9.00;;;;;;;2.83;61.45;99076.66;106151;1270;137656;-76
2022/02/01 12:34:13;;;;;;;19.20;9.40;;;;;;;2.67;61.21;99078.17;106324;1270;110002;-77
2022/02/01 12:36:49;;;;;;;17.00;9.30;;;;;;;2.49;61.65;99072.17;106166;1270;138398;-77
2022/02/01 12:39:27;;;;;;;18.60;10.40;;;;;;;2.31;61.95;99071.45;106348;1270;108110;-76
2022/02/01 12:42:04;;;;;;;18.50;9.70;;;;;;;2.16;62.30;99074.80;106305;1270;96643;-75